ADDS TAF Board (Experimental) INFO Settings

IDs: Format: Expanded Condensed

KDTW - Detroit Metro/Wayne, MI, US

Issued at 0520 UTC 06 Mar 2015
Updated at: 0727 UTC 06 Mar 2015
Time0653Z 06/08Z 06/09Z 06/10Z 06/11Z 06/12Z 06/13Z 06/14Z 06/15Z 06/16Z 06/17Z 06/18Z 06/19Z 06/20Z
Type OBS PRVL PRVL PRVL PRVL PRVL PRVL PRVL PRVL PRVL PRVL PRVL PRVL PRVL
VIS 10 >6 >6 >6 >6 >6 >6 >6 >6 >6 >6 >6 >6 >6
CIG -- -- -- -- -- -- -- 250 250 250 250 250 120 120
Cover CLR SKC SKC SKC SKC SKC SKC BKN BKN BKN BKN BKN OVC OVC
FltCat VFR VFR VFR VFR VFR VFR VFR VFR VFR VFR VFR VFR VFR VFR
WX -- -- -- -- -- -- -- -- -- -- -- -- -- --
WDir VRB 250 250 250 250 250 250 220 220 220 220 220 220 220
WSpd 0 5 5 5 5 5 5 10 10 10 10 10 13 13
WGst -- -- -- -- -- -- -- -- -- -- -- -- 20 20
R03/21
XWnd VRB 3 3 3 3 3 3 2 2 2 2 2 2 2
XGst -- -- -- -- -- -- -- -- -- -- -- -- 4 4
HWnd VRB -4 -4 -4 -4 -4 -4 -10 -10 -10 -10 -10 -13 -13
HGst -- -- -- -- -- -- -- -- -- -- -- -- -20 -20
R04/22
XWnd VRB 3 3 3 3 3 3 2 2 2 2 2 2 2
XGst -- -- -- -- -- -- -- -- -- -- -- -- 4 4
HWnd VRB -4 -4 -4 -4 -4 -4 -10 -10 -10 -10 -10 -13 -13
HGst -- -- -- -- -- -- -- -- -- -- -- -- -20 -20
R09/27
XWnd VRB -2 -2 -2 -2 -2 -2 -8 -8 -8 -8 -8 -10 -10
XGst -- -- -- -- -- -- -- -- -- -- -- -- -15 -15
HWnd VRB -5 -5 -5 -5 -5 -5 -7 -7 -7 -7 -7 -9 -9
HGst -- -- -- -- -- -- -- -- -- -- -- -- -13 -13

NOTE: TEMPO conditions in [brackets]. Keep in mind TEMPO conditions might be better (lower impact) than prevailing conditions.

Raw TAF
KDTW 060520Z 0606/0712 25005KT P6SM SKC
  FM061400 22010KT P6SM BKN250
  FM061900 22013G20KT P6SM SCT040 OVC120
  FM070000 22012G20KT P6SM SCT025 OVC040
  FM070600 23010KT P6SM OVC020


Raw METAR
KDTW 060653Z 00000KT 10SM CLR M13/M18 A3051 RMK AO2 SLP343 T11331183 $
KDTW 060553Z 00000KT 10SM CLR M13/M18 A3051 RMK AO2 SLP345 T11281183 11089 21139 50001 $
KDTW 060453Z 18004KT 10SM CLR M14/M19 A3052 RMK AO2 SLP348 T11391189 410721139 $

METAR Board
Radar Display
Forecast Discussion

TAF Board Legend

Potential Impact
Threat None Slight Moderate High
Visibility (sm) ≥5.1 5.1>X≥3 3>X≥1 <1
Ceiling (100 ft) ≥30.1 30.1>X≥10 10>X≥5 <5
Wind Speed (kt) <10 10≤X<20 20≤X<30 ≥30
Wind Gust (kt) <15 15≤X<25 25≤X<35 ≥35
Weather No Wx Reported VCTS,-TS,-FZRA,SN TS,FZRA +TS,+FZRA,+SN